sensor_id;sensor_type;location;lat;lon;timestamp;pressure;altitude;pressure_sealevel;temperature;humidity
31403;BME280;18039;52.188;21.024;2023-05-25T00:01:43;76301.00;;;-141.45;95.08
31403;BME280;18039;52.188;21.024;2023-05-25T00:04:15;76311.13;;;-141.45;95.58
31403;BME280;18039;52.188;21.024;2023-05-25T00:06:43;76325.31;;;-141.45;95.83
31403;BME280;18039;52.188;21.024;2023-05-25T00:09:12;76335.47;;;-141.45;96.26
31403;BME280;18039;52.188;21.024;2023-05-25T00:11:39;76333.44;;;-141.45;96.48
31403;BME280;18039;52.188;21.024;2023-05-25T00:14:06;76335.47;;;-141.45;96.54
31403;BME280;18039;52.188;21.024;2023-05-25T00:16:34;76341.53;;;-141.45;96.59
31403;BME280;18039;52.188;21.024;2023-05-25T00:19:04;76345.59;;;-141.45;96.47
31403;BME280;18039;52.188;21.024;2023-05-25T00:21:32;76343.56;;;-141.45;96.14
31403;BME280;18039;52.188;21.024;2023-05-25T00:24:05;76353.72;;;-141.45;96.83
31403;BME280;18039;52.188;21.024;2023-05-25T00:26:33;76355.72;;;-141.45;96.86
31403;BME280;18039;52.188;21.024;2023-05-25T00:29:02;76341.53;;;-141.45;96.89
31403;BME280;18039;52.188;21.024;2023-05-25T00:31:29;76345.59;;;-141.45;96.40
31403;BME280;18039;52.188;21.024;2023-05-25T00:33:59;76345.59;;;-141.45;96.26
31403;BME280;18039;52.188;21.024;2023-05-25T00:36:27;76353.72;;;-141.45;96.33
31403;BME280;18039;52.188;21.024;2023-05-25T00:38:54;76349.66;;;-141.45;96.24
31403;BME280;18039;52.188;21.024;2023-05-25T00:41:22;76361.81;;;-141.45;96.64
31403;BME280;18039;52.188;21.024;2023-05-25T00:43:50;76361.81;;;-141.45;96.83
31403;BME280;18039;52.188;21.024;2023-05-25T00:46:18;76365.88;;;-141.45;97.18
31403;BME280;18039;52.188;21.024;2023-05-25T00:48:45;76363.84;;;-141.45;97.34
31403;BME280;18039;52.188;21.024;2023-05-25T00:51:13;76361.81;;;-141.45;97.27
31403;BME280;18039;52.188;21.024;2023-05-25T00:53:41;76371.94;;;-141.45;97.66
31403;BME280;18039;52.188;21.024;2023-05-25T00:56:13;76365.88;;;-141.45;97.66
31403;BME280;18039;52.188;21.024;2023-05-25T00:58:42;76373.97;;;-141.45;97.56
31403;BME280;18039;52.188;21.024;2023-05-25T01:01:14;76382.09;;;-141.45;97.68
31403;BME280;18039;52.188;21.024;2023-05-25T01:03:45;76378.03;;;-141.45;97.70
31403;BME280;18039;52.188;21.024;2023-05-25T01:06:15;76378.03;;;-141.45;98.19
31403;BME280;18039;52.188;21.024;2023-05-25T01:08:48;76378.03;;;-141.45;98.17
31403;BME280;18039;52.188;21.024;2023-05-25T01:11:19;76398.28;;;-141.45;99.19
31403;BME280;18039;52.188;21.024;2023-05-25T01:13:51;76384.09;;;-141.45;98.52
31403;BME280;18039;52.188;21.024;2023-05-25T01:16:19;76369.91;;;-141.45;98.45
31403;BME280;18039;52.188;21.024;2023-05-25T01:18:47;76384.09;;;-141.45;98.72
31403;BME280;18039;52.188;21.024;2023-05-25T01:21:19;76394.25;;;-141.45;99.18
31403;BME280;18039;52.188;21.024;2023-05-25T01:24:21;76386.13;;;-141.45;99.10
31403;BME280;18039;52.188;21.024;2023-05-25T01:26:54;76386.13;;;-141.45;98.92
31403;BME280;18039;52.188;21.024;2023-05-25T01:29:25;76394.25;;;-141.45;99.26
31403;BME280;18039;52.188;21.024;2023-05-25T01:31:55;76394.25;;;-141.45;99.59
31403;BME280;18039;52.188;21.024;2023-05-25T01:34:25;76398.28;;;-141.45;99.68
31403;BME280;18039;52.188;21.024;2023-05-25T01:36:53;76394.25;;;-141.45;99.71
31403;BME280;18039;52.188;21.024;2023-05-25T01:39:21;76394.25;;;-141.45;100.00
31403;BME280;18039;52.188;21.024;2023-05-25T01:41:49;76390.19;;;-141.45;99.73
31403;BME280;18039;52.188;21.024;2023-05-25T01:44:16;76386.13;;;-141.45;99.77
31403;BME280;18039;52.188;21.024;2023-05-25T01:46:43;76386.13;;;-141.45;100.00
31403;BME280;18039;52.188;21.024;2023-05-25T01:54:44;76382.09;;;-141.45;99.55
31403;BME280;18039;52.188;21.024;2023-05-25T01:57:14;76394.25;;;-141.45;100.00
31403;BME280;18039;52.188;21.024;2023-05-25T01:59:45;76388.16;;;-141.45;100.00
31403;BME280;18039;52.188;21.024;2023-05-25T02:02:14;76386.13;;;-141.45;100.00
31403;BME280;18039;52.188;21.024;2023-05-25T02:04:44;76378.03;;;-141.45;100.00
31403;BME280;18039;52.188;21.024;2023-05-25T02:07:13;76382.09;;;-141.45;100.00
31403;BME280;18039;52.188;21.024;2023-05-25T02:09:40;76373.97;;;-141.45;100.00
31403;BME280;18039;52.188;21.024;2023-05-25T02:12:07;76373.97;;;-141.45;100.00
31403;BME280;18039;52.188;21.024;2023-05-25T02:14:35;76382.09;;;-141.45;100.00
31403;BME280;18039;52.188;21.024;2023-05-25T02:17:02;76376.00;;;-141.45;100.00
31403;BME280;18039;52.188;21.024;2023-05-25T02:19:30;76369.91;;;-141.45;100.00
31403;BME280;18039;52.188;21.024;2023-05-25T02:21:57;76357.75;;;-141.45;100.00
31403;BME280;18039;52.188;21.024;2023-05-25T02:24:24;76371.94;;;-141.45;99.96
31403;BME280;18039;52.188;21.024;2023-05-25T02:26:52;76373.97;;;-141.45;100.00
31403;BME280;18039;52.188;21.024;2023-05-25T02:29:19;76380.06;;;-141.45;100.00
31403;BME280;18039;52.188;21.024;2023-05-25T02:31:47;76371.94;;;-141.45;100.00
31403;BME280;18039;52.188;21.024;2023-05-25T02:34:14;76380.06;;;-141.45;100.00
31403;BME280;18039;52.188;21.024;2023-05-25T02:36:43;76386.13;;;-141.45;100.00
31403;BME280;18039;52.188;21.024;2023-05-25T02:39:10;76382.09;;;-141.45;100.00
31403;BME280;18039;52.188;21.024;2023-05-25T02:41:38;76382.09;;;-141.45;100.00
31403;BME280;18039;52.188;21.024;2023-05-25T02:44:06;76394.25;;;-141.45;100.00
31403;BME280;18039;52.188;21.024;2023-05-25T02:46:34;76396.28;;;-141.45;100.00
31403;BME280;18039;52.188;21.024;2023-05-25T02:49:01;76398.28;;;-141.45;100.00
31403;BME280;18039;52.188;21.024;2023-05-25T02:51:28;76394.25;;;-141.45;100.00
31403;BME280;18039;52.188;21.024;2023-05-25T02:53:57;76394.25;;;-141.45;100.00
31403;BME280;18039;52.188;21.024;2023-05-25T02:56:25;76386.13;;;-141.45;100.00
31403;BME280;18039;52.188;21.024;2023-05-25T02:58:54;76380.06;;;-141.45;100.00
31403;BME280;18039;52.188;21.024;2023-05-25T03:01:29;76386.13;;;-141.45;100.00
31403;BME280;18039;52.188;21.024;2023-05-25T03:03:57;76386.13;;;-141.45;100.00
31403;BME280;18039;52.188;21.024;2023-05-25T03:06:26;76386.13;;;-141.45;99.84
31403;BME280;18039;52.188;21.024;2023-05-25T03:09:01;76398.28;;;-141.45;99.93
31403;BME280;18039;52.188;21.024;2023-05-25T03:11:31;76390.19;;;-141.45;99.69
31403;BME280;18039;52.188;21.024;2023-05-25T03:13:59;76402.34;;;-141.45;100.00
31403;BME280;18039;52.188;21.024;2023-05-25T03:16:28;76406.41;;;-141.45;100.00
31403;BME280;18039;52.188;21.024;2023-05-25T03:18:56;76410.47;;;-141.45;100.00
31403;BME280;18039;52.188;21.024;2023-05-25T03:21:24;76400.31;;;-141.45;100.00
31403;BME280;18039;52.188;21.024;2023-05-25T03:23:52;76390.19;;;-141.45;99.32
31403;BME280;18039;52.188;21.024;2023-05-25T03:26:19;76394.25;;;-141.45;99.63
31403;BME280;18039;52.188;21.024;2023-05-25T03:28:47;76408.44;;;-141.45;99.73
31403;BME280;18039;52.188;21.024;2023-05-25T03:31:15;76406.41;;;-141.45;99.79
31403;BME280;18039;52.188;21.024;2023-05-25T03:33:43;76412.47;;;-141.45;100.00
31403;BME280;18039;52.188;21.024;2023-05-25T03:36:11;76410.47;;;-141.45;99.57
31403;BME280;18039;52.188;21.024;2023-05-25T03:38:41;76418.56;;;-141.45;100.00
31403;BME280;18039;52.188;21.024;2023-05-25T03:41:10;76430.72;;;-141.45;100.00
31403;BME280;18039;52.188;21.024;2023-05-25T03:43:37;76422.63;;;-141.45;100.00
31403;BME280;18039;52.188;21.024;2023-05-25T03:46:06;76410.47;;;-141.45;99.99
31403;BME280;18039;52.188;21.024;2023-05-25T03:48:34;76418.56;;;-141.45;100.00
31403;BME280;18039;52.188;21.024;2023-05-25T03:51:03;76412.47;;;-141.45;99.90
31403;BME280;18039;52.188;21.024;2023-05-25T03:53:30;76414.50;;;-141.45;99.71
31403;BME280;18039;52.188;21.024;2023-05-25T03:55:58;76418.56;;;-141.45;100.00
31403;BME280;18039;52.188;21.024;2023-05-25T03:58:25;76418.56;;;-141.45;100.00
31403;BME280;18039;52.188;21.024;2023-05-25T04:00:52;76406.41;;;-141.45;99.27
31403;BME280;18039;52.188;21.024;2023-05-25T04:03:20;76414.50;;;-141.45;99.48
31403;BME280;18039;52.188;21.024;2023-05-25T04:05:49;76422.63;;;-141.45;100.00
31403;BME280;18039;52.188;21.024;2023-05-25T04:08:16;76426.69;;;-141.45;99.67
31403;BME280;18039;52.188;21.024;2023-05-25T04:10:46;76422.63;;;-141.45;100.00
31403;BME280;18039;52.188;21.024;2023-05-25T04:13:14;76418.56;;;-141.45;99.80
31403;BME280;18039;52.188;21.024;2023-05-25T04:15:42;76414.50;;;-141.45;99.86
31403;BME280;18039;52.188;21.024;2023-05-25T04:18:30;76406.41;;;-141.45;99.74
31403;BME280;18039;52.188;21.024;2023-05-25T04:20:58;76402.34;;;-141.45;99.77
31403;BME280;18039;52.188;21.024;2023-05-25T04:23:26;76386.13;;;-141.45;99.00
31403;BME280;18039;52.188;21.024;2023-05-25T04:25:55;76390.19;;;-141.45;98.71
31403;BME280;18039;52.188;21.024;2023-05-25T04:28:23;76382.09;;;-141.45;98.00
31403;BME280;18039;52.188;21.024;2023-05-25T04:30:54;76373.97;;;-141.45;97.79
31403;BME280;18039;52.188;21.024;2023-05-25T04:33:42;76382.09;;;-141.45;97.74
31403;BME280;18039;52.188;21.024;2023-05-25T04:36:24;76382.09;;;-141.45;98.09
31403;BME280;18039;52.188;21.024;2023-05-25T04:38:52;76373.97;;;-141.45;97.54
31403;BME280;18039;52.188;21.024;2023-05-25T04:41:22;76365.88;;;-141.45;97.46
31403;BME280;18039;52.188;21.024;2023-05-25T04:43:55;76369.91;;;-141.45;97.43
31403;BME280;18039;52.188;21.024;2023-05-25T04:46:30;76390.19;;;-141.45;97.59
31403;BME280;18039;52.188;21.024;2023-05-25T04:49:04;76402.34;;;-141.45;98.45
31403;BME280;18039;52.188;21.024;2023-05-25T04:51:32;76402.34;;;-141.45;98.94
31403;BME280;18039;52.188;21.024;2023-05-25T04:53:59;76402.34;;;-141.45;99.20
31403;BME280;18039;52.188;21.024;2023-05-25T04:56:27;76396.28;;;-141.45;98.88
31403;BME280;18039;52.188;21.024;2023-05-25T04:58:56;76400.31;;;-141.45;98.49
31403;BME280;18039;52.188;21.024;2023-05-25T05:01:23;76402.34;;;-141.45;98.46
31403;BME280;18039;52.188;21.024;2023-05-25T05:03:55;76390.19;;;-141.45;98.03
31403;BME280;18039;52.188;21.024;2023-05-25T05:06:23;76410.47;;;-141.45;99.05
31403;BME280;18039;52.188;21.024;2023-05-25T05:08:51;76406.41;;;-141.45;98.57
31403;BME280;18039;52.188;21.024;2023-05-25T05:11:19;76402.34;;;-141.45;98.00
31403;BME280;18039;52.188;21.024;2023-05-25T05:13:47;76418.56;;;-141.45;98.52
31403;BME280;18039;52.188;21.024;2023-05-25T05:16:14;76434.78;;;-141.45;99.51
31403;BME280;18039;52.188;21.024;2023-05-25T05:18:42;76432.75;;;-141.45;99.83
31403;BME280;18039;52.188;21.024;2023-05-25T05:21:09;76430.72;;;-141.45;99.69
31403;BME280;18039;52.188;21.024;2023-05-25T05:23:36;76416.53;;;-141.45;98.89
31403;BME280;18039;52.188;21.024;2023-05-25T05:26:04;76418.56;;;-141.45;98.94
31403;BME280;18039;52.188;21.024;2023-05-25T05:28:33;76406.41;;;-141.45;98.11
31403;BME280;18039;52.188;21.024;2023-05-25T05:31:00;76406.41;;;-141.45;97.32
31403;BME280;18039;52.188;21.024;2023-05-25T05:33:27;76406.41;;;-141.45;97.81
31403;BME280;18039;52.188;21.024;2023-05-25T05:35:55;76392.22;;;-141.45;97.79
31403;BME280;18039;52.188;21.024;2023-05-25T05:38:23;76394.25;;;-141.45;97.38
31403;BME280;18039;52.188;21.024;2023-05-25T05:40:50;76390.19;;;-141.45;97.08
31403;BME280;18039;52.188;21.024;2023-05-25T05:43:21;76394.25;;;-141.45;96.51
31403;BME280;18039;52.188;21.024;2023-05-25T05:45:49;76406.41;;;-141.45;96.65
31403;BME280;18039;52.188;21.024;2023-05-25T05:48:17;76410.47;;;-141.45;97.14
31403;BME280;18039;52.188;21.024;2023-05-25T05:50:45;76418.56;;;-141.45;97.13
31403;BME280;18039;52.188;21.024;2023-05-25T05:53:12;76418.56;;;-141.45;97.13
31403;BME280;18039;52.188;21.024;2023-05-25T05:55:41;76408.44;;;-141.45;97.13
31403;BME280;18039;52.188;21.024;2023-05-25T05:58:09;76398.28;;;-141.45;96.89
31403;BME280;18039;52.188;21.024;2023-05-25T06:00:36;76406.41;;;-141.45;97.22
31403;BME280;18039;52.188;21.024;2023-05-25T06:03:05;76392.22;;;-141.45;97.54
31403;BME280;18039;52.188;21.024;2023-05-25T06:05:33;76392.22;;;-141.45;96.56
31403;BME280;18039;52.188;21.024;2023-05-25T06:08:00;76402.34;;;-141.45;96.59
31403;BME280;18039;52.188;21.024;2023-05-25T06:10:34;76396.28;;;-141.45;96.67
31403;BME280;18039;52.188;21.024;2023-05-25T06:13:01;76382.09;;;-141.45;96.90
31403;BME280;18039;52.188;21.024;2023-05-25T06:15:29;76365.88;;;-141.45;95.94
31403;BME280;18039;52.188;21.024;2023-05-25T06:17:59;76359.78;;;-141.45;94.97
31403;BME280;18039;52.188;21.024;2023-05-25T06:20:26;76365.88;;;-141.45;94.77
31403;BME280;18039;52.188;21.024;2023-05-25T06:22:54;76373.97;;;-141.45;95.49
31403;BME280;18039;52.188;21.024;2023-05-25T06:25:21;76365.88;;;-141.45;94.40
31403;BME280;18039;52.188;21.024;2023-05-25T06:27:50;76359.78;;;-141.45;94.85
31403;BME280;18039;52.188;21.024;2023-05-25T06:30:18;76373.97;;;-141.45;94.81
31403;BME280;18039;52.188;21.024;2023-05-25T06:32:46;76365.88;;;-141.45;94.07
31403;BME280;18039;52.188;21.024;2023-05-25T06:35:15;76369.91;;;-141.45;94.14
31403;BME280;18039;52.188;21.024;2023-05-25T06:37:49;76378.03;;;-141.45;94.87
31403;BME280;18039;52.188;21.024;2023-05-25T06:40:18;76365.88;;;-141.45;94.09
31403;BME280;18039;52.188;21.024;2023-05-25T06:42:45;76361.81;;;-141.45;94.28
31403;BME280;18039;52.188;21.024;2023-05-25T06:45:42;76367.88;;;-141.45;94.49
31403;BME280;18039;52.188;21.024;2023-05-25T06:48:09;76361.81;;;-141.45;94.63
31403;BME280;18039;52.188;21.024;2023-05-25T06:50:37;76349.66;;;-141.45;94.60
31403;BME280;18039;52.188;21.024;2023-05-25T06:53:06;76333.44;;;-141.45;93.88
31403;BME280;18039;52.188;21.024;2023-05-25T06:55:33;76325.31;;;-141.45;93.61
31403;BME280;18039;52.188;21.024;2023-05-25T06:58:00;76317.22;;;-141.45;93.47
31403;BME280;18039;52.188;21.024;2023-05-25T07:00:28;76305.06;;;-141.45;93.14
31403;BME280;18039;52.188;21.024;2023-05-25T07:02:55;76313.16;;;-141.45;92.30
31403;BME280;18039;52.188;21.024;2023-05-25T07:05:23;76305.06;;;-141.45;92.55
31403;BME280;18039;52.188;21.024;2023-05-25T07:07:50;76303.03;;;-141.45;92.34
31403;BME280;18039;52.188;21.024;2023-05-25T07:10:18;76301.00;;;-141.45;92.01
31403;BME280;18039;52.188;21.024;2023-05-25T07:12:46;76298.97;;;-141.45;91.58
31403;BME280;18039;52.188;21.024;2023-05-25T07:15:13;76301.00;;;-141.45;92.28
31403;BME280;18039;52.188;21.024;2023-05-25T07:17:42;76280.72;;;-141.45;92.05
31403;BME280;18039;52.188;21.024;2023-05-25T07:20:10;76280.72;;;-141.45;91.57
31403;BME280;18039;52.188;21.024;2023-05-25T07:22:39;76288.84;;;-141.45;91.29
31403;BME280;18039;52.188;21.024;2023-05-25T07:25:07;76268.56;;;-141.45;90.49
31403;BME280;18039;52.188;21.024;2023-05-25T07:27:34;76284.78;;;-141.45;91.36
31403;BME280;18039;52.188;21.024;2023-05-25T07:30:02;76278.72;;;-141.45;91.08
31403;BME280;18039;52.188;21.024;2023-05-25T07:32:30;76268.56;;;-141.45;91.60
31403;BME280;18039;52.188;21.024;2023-05-25T07:34:58;76276.69;;;-141.45;90.94
31403;BME280;18039;52.188;21.024;2023-05-25T07:37:25;76260.47;;;-141.45;90.57
31403;BME280;18039;52.188;21.024;2023-05-25T07:39:52;76272.63;;;-141.45;89.99
31403;BME280;18039;52.188;21.024;2023-05-25T07:42:20;76256.41;;;-141.45;90.00
31403;BME280;18039;52.188;21.024;2023-05-25T07:44:47;76264.53;;;-141.45;89.73
31403;BME280;18039;52.188;21.024;2023-05-25T07:47:15;76268.56;;;-141.45;90.62
31403;BME280;18039;52.188;21.024;2023-05-25T07:49:42;76258.44;;;-141.45;90.11
31403;BME280;18039;52.188;21.024;2023-05-25T07:52:10;76260.47;;;-141.45;89.81
31403;BME280;18039;52.188;21.024;2023-05-25T07:54:38;76236.16;;;-141.45;89.97
31403;BME280;18039;52.188;21.024;2023-05-25T07:57:06;76203.72;;;-141.45;90.03
31403;BME280;18039;52.188;21.024;2023-05-25T07:59:34;76199.66;;;-141.45;88.71
31403;BME280;18039;52.188;21.024;2023-05-25T08:02:01;76189.53;;;-141.45;87.89
31403;BME280;18039;52.188;21.024;2023-05-25T08:04:30;76171.28;;;-141.45;87.33
31403;BME280;18039;52.188;21.024;2023-05-25T08:06:57;76163.19;;;-141.45;87.54
31403;BME280;18039;52.188;21.024;2023-05-25T08:09:25;76142.91;;;-141.45;86.90
31403;BME280;18039;52.188;21.024;2023-05-25T08:11:52;76126.69;;;-141.45;85.81
31403;BME280;18039;52.188;21.024;2023-05-25T08:14:39;76146.97;;;-141.45;85.47
31403;BME280;18039;52.188;21.024;2023-05-25T08:17:06;76151.00;;;-141.45;87.24
31403;BME280;18039;52.188;21.024;2023-05-25T08:19:33;76153.03;;;-141.45;86.79
31403;BME280;18039;52.188;21.024;2023-05-25T08:22:01;76114.53;;;-141.45;85.13
31403;BME280;18039;52.188;21.024;2023-05-25T08:24:28;76126.69;;;-141.45;86.19
31403;BME280;18039;52.188;21.024;2023-05-25T08:26:56;76096.28;;;-141.45;85.30
31403;BME280;18039;52.188;21.024;2023-05-25T08:29:23;76061.84;;;-141.45;84.48
31403;BME280;18039;52.188;21.024;2023-05-25T08:31:50;76061.84;;;-141.45;83.31
31403;BME280;18039;52.188;21.024;2023-05-25T08:34:18;76041.56;;;-141.45;82.89
31403;BME280;18039;52.188;21.024;2023-05-25T08:36:45;76009.13;;;-141.45;81.11
31403;BME280;18039;52.188;21.024;2023-05-25T08:39:12;76025.34;;;-141.45;81.28
31403;BME280;18039;52.188;21.024;2023-05-25T08:41:42;76025.34;;;-141.45;80.92
31403;BME280;18039;52.188;21.024;2023-05-25T08:44:11;76021.31;;;-141.45;81.60
31403;BME280;18039;52.188;21.024;2023-05-25T08:46:40;76005.09;;;-141.45;82.28
31403;BME280;18039;52.188;21.024;2023-05-25T08:49:10;75984.81;;;-141.45;82.19
31403;BME280;18039;52.188;21.024;2023-05-25T08:51:45;75988.88;;;-141.45;80.49
31403;BME280;18039;52.188;21.024;2023-05-25T08:54:17;75982.78;;;-141.45;80.79
31403;BME280;18039;52.188;21.024;2023-05-25T08:56:48;75988.88;;;-141.45;80.94
31403;BME280;18039;52.188;21.024;2023-05-25T08:59:38;75976.72;;;-141.45;79.32
31403;BME280;18039;52.188;21.024;2023-05-25T09:02:34;75996.97;;;-141.45;80.07
31403;BME280;18039;52.188;21.024;2023-05-25T09:05:07;75996.97;;;-141.45;81.61
31403;BME280;18039;52.188;21.024;2023-05-25T09:07:34;75980.75;;;-141.45;81.30
31403;BME280;18039;52.188;21.024;2023-05-25T09:10:02;75968.59;;;-141.45;80.15
31403;BME280;18039;52.188;21.024;2023-05-25T09:12:30;75944.28;;;-141.45;80.27
31403;BME280;18039;52.188;21.024;2023-05-25T09:14:58;75922.00;;;-141.45;78.88
31403;BME280;18039;52.188;21.024;2023-05-25T09:17:26;75917.94;;;-141.45;79.65
31403;BME280;18039;52.188;21.024;2023-05-25T09:19:53;75928.06;;;-141.45;78.64
31403;BME280;18039;52.188;21.024;2023-05-25T09:22:21;75930.09;;;-141.45;79.37
31403;BME280;18039;52.188;21.024;2023-05-25T09:24:48;75915.91;;;-141.45;77.17
31403;BME280;18039;52.188;21.024;2023-05-25T09:27:17;75928.06;;;-141.45;77.16
31403;BME280;18039;52.188;21.024;2023-05-25T09:29:46;75932.13;;;-141.45;77.34
31403;BME280;18039;52.188;21.024;2023-05-25T09:32:15;75968.59;;;-141.45;78.20
31403;BME280;18039;52.188;21.024;2023-05-25T09:34:43;75988.88;;;-141.45;79.21
31403;BME280;18039;52.188;21.024;2023-05-25T09:37:13;76001.03;;;-141.45;80.26
31403;BME280;18039;52.188;21.024;2023-05-25T09:39:42;75984.81;;;-141.45;80.31
31403;BME280;18039;52.188;21.024;2023-05-25T09:42:10;75976.72;;;-141.45;79.22
31403;BME280;18039;52.188;21.024;2023-05-25T09:44:39;75968.59;;;-141.45;78.34
31403;BME280;18039;52.188;21.024;2023-05-25T09:47:08;75976.72;;;-141.45;78.29
31403;BME280;18039;52.188;21.024;2023-05-25T09:49:36;75984.81;;;-141.45;78.01
31403;BME280;18039;52.188;21.024;2023-05-25T09:52:05;75972.66;;;-141.45;78.03
31403;BME280;18039;52.188;21.024;2023-05-25T09:54:32;75980.75;;;-141.45;78.42
31403;BME280;18039;52.188;21.024;2023-05-25T09:57:01;75994.94;;;-141.45;79.20
31403;BME280;18039;52.188;21.024;2023-05-25T09:59:30;75976.72;;;-141.45;78.54
31403;BME280;18039;52.188;21.024;2023-05-25T10:01:58;75972.66;;;-141.45;79.18
31403;BME280;18039;52.188;21.024;2023-05-25T10:04:26;75972.66;;;-141.45;79.04
31403;BME280;18039;52.188;21.024;2023-05-25T10:06:54;75956.44;;;-141.45;78.90
31403;BME280;18039;52.188;21.024;2023-05-25T10:09:26;75950.38;;;-141.45;78.70
31403;BME280;18039;52.188;21.024;2023-05-25T10:11:56;75928.06;;;-141.45;77.79
31403;BME280;18039;52.188;21.024;2023-05-25T10:14:28;75932.13;;;-141.45;78.73
31403;BME280;18039;52.188;21.024;2023-05-25T10:16:58;75932.13;;;-141.45;78.52
31403;BME280;18039;52.188;21.024;2023-05-25T10:19:31;75915.91;;;-141.45;78.18
31403;BME280;18039;52.188;21.024;2023-05-25T10:22:12;75911.84;;;-141.45;78.45
31403;BME280;18039;52.188;21.024;2023-05-25T10:24:56;75887.53;;;-141.45;78.45
31403;BME280;18039;52.188;21.024;2023-05-25T10:27:28;75859.16;;;-141.45;78.16
31403;BME280;18039;52.188;21.024;2023-05-25T10:30:00;75847.00;;;-141.45;77.51
31403;BME280;18039;52.188;21.024;2023-05-25T10:32:28;75834.84;;;-141.45;77.16
31403;BME280;18039;52.188;21.024;2023-05-25T10:34:56;75834.84;;;-141.45;76.14
31403;BME280;18039;52.188;21.024;2023-05-25T10:37:25;75838.91;;;-141.45;76.72
31403;BME280;18039;52.188;21.024;2023-05-25T10:39:56;75838.91;;;-141.45;75.84
31403;BME280;18039;52.188;21.024;2023-05-25T10:42:25;75851.06;;;-141.45;76.27
31403;BME280;18039;52.188;21.024;2023-05-25T10:44:53;75861.19;;;-141.45;76.87
31403;BME280;18039;52.188;21.024;2023-05-25T10:47:27;75863.22;;;-141.45;78.09
31403;BME280;18039;52.188;21.024;2023-05-25T10:49:56;75840.91;;;-141.45;77.51
31403;BME280;18039;52.188;21.024;2023-05-25T10:52:28;75810.53;;;-141.45;76.97
31403;BME280;18039;52.188;21.024;2023-05-25T10:55:00;75790.25;;;-141.45;76.76
31403;BME280;18039;52.188;21.024;2023-05-25T10:57:30;75770.00;;;-141.45;76.86
31403;BME280;18039;52.188;21.024;2023-05-25T11:00:06;75737.56;;;-141.45;75.37
31403;BME280;18039;52.188;21.024;2023-05-25T11:02:51;75705.13;;;-141.45;74.98
31403;BME280;18039;52.188;21.024;2023-05-25T11:07:53;75644.34;;;-141.45;71.98
31403;BME280;18039;52.188;21.024;2023-05-25T11:13:36;75587.59;;;-141.45;70.27
31403;BME280;18039;52.188;21.024;2023-05-25T11:18:41;75534.91;;;-141.45;69.19
31403;BME280;18039;52.188;21.024;2023-05-25T11:24:14;75538.97;;;-141.45;67.03
31403;BME280;18039;52.188;21.024;2023-05-25T11:26:53;75534.91;;;-141.45;68.11
31403;BME280;18039;52.188;21.024;2023-05-25T11:29:22;75528.84;;;-141.45;68.44
31403;BME280;18039;52.188;21.024;2023-05-25T11:31:53;75522.75;;;-141.45;67.80
31403;BME280;18039;52.188;21.024;2023-05-25T11:34:24;75502.50;;;-141.45;67.32
31403;BME280;18039;52.188;21.024;2023-05-25T11:36:57;75466.00;;;-141.45;67.41
31403;BME280;18039;52.188;21.024;2023-05-25T11:39:24;75421.44;;;-141.45;67.23
31403;BME280;18039;52.188;21.024;2023-05-25T11:41:57;75384.97;;;-141.45;65.37
31403;BME280;18039;52.188;21.024;2023-05-25T11:44:29;75348.47;;;-141.45;65.59
31403;BME280;18039;52.188;21.024;2023-05-25T11:47:00;75318.09;;;-141.45;62.91
31403;BME280;18039;52.188;21.024;2023-05-25T11:49:27;75314.03;;;-141.45;63.08
31403;BME280;18039;52.188;21.024;2023-05-25T11:51:56;75316.06;;;-141.45;64.46
31403;BME280;18039;52.188;21.024;2023-05-25T11:54:27;75320.13;;;-141.45;61.05
31403;BME280;18039;52.188;21.024;2023-05-25T11:56:56;75332.28;;;-141.45;62.07
31403;BME280;18039;52.188;21.024;2023-05-25T11:59:26;75334.28;;;-141.45;63.36
31403;BME280;18039;52.188;21.024;2023-05-25T12:01:59;75344.44;;;-141.45;62.14
31403;BME280;18039;52.188;21.024;2023-05-25T12:04:28;75364.69;;;-141.45;61.89
31403;BME280;18039;52.188;21.024;2023-05-25T12:07:03;75366.72;;;-141.45;62.38
31403;BME280;18039;52.188;21.024;2023-05-25T12:09:31;75352.53;;;-141.45;62.53
31403;BME280;18039;52.188;21.024;2023-05-25T12:11:59;75336.31;;;-141.45;62.70
31403;BME280;18039;52.188;21.024;2023-05-25T12:14:27;75305.94;;;-141.45;62.96
31403;BME280;18039;52.188;21.024;2023-05-25T12:16:55;75287.69;;;-141.45;60.79
31403;BME280;18039;52.188;21.024;2023-05-25T12:19:22;75277.56;;;-141.45;61.38
31403;BME280;18039;52.188;21.024;2023-05-25T12:21:50;75287.69;;;-141.45;60.94
31403;BME280;18039;52.188;21.024;2023-05-25T12:24:18;75295.78;;;-141.45;62.32
31403;BME280;18039;52.188;21.024;2023-05-25T12:29:13;75271.47;;;-141.45;62.32
31403;BME280;18039;52.188;21.024;2023-05-25T12:31:41;75247.16;;;-141.45;61.08
31403;BME280;18039;52.188;21.024;2023-05-25T12:34:11;75218.78;;;-141.45;60.87
31403;BME280;18039;52.188;21.024;2023-05-25T12:36:47;75198.53;;;-141.45;60.32
31403;BME280;18039;52.188;21.024;2023-05-25T12:39:15;75190.44;;;-141.45;59.79
31403;BME280;18039;52.188;21.024;2023-05-25T12:41:43;75186.38;;;-141.45;60.32
31403;BME280;18039;52.188;21.024;2023-05-25T12:44:38;75184.34;;;-141.45;60.06
31403;BME280;18039;52.188;21.024;2023-05-25T12:49:38;75186.38;;;-141.45;60.84
31403;BME280;18039;52.188;21.024;2023-05-25T12:52:07;75153.94;;;-141.45;59.64
31403;BME280;18039;52.188;21.024;2023-05-25T12:54:42;75133.69;;;-141.45;58.99
31403;BME280;18039;52.188;21.024;2023-05-25T12:57:15;75129.63;;;-141.45;58.99
31403;BME280;18039;52.188;21.024;2023-05-25T12:59:45;75145.84;;;-141.45;60.08
31403;BME280;18039;52.188;21.024;2023-05-25T13:02:13;75117.47;;;-141.45;59.03